| time (UTC) | temp F | wind direction | speed MPH | gust MPH | rain 1hr in | rain 24hr in | rain mn in | humidity % | barometer mb |
| 20260508070024 | 41 | 328 | 5.0 | 10.0 | 0.00 | 0.13 | 0.00 | 84 | 999.0 |
| 20260508064521 | 41 | 351 | 3.0 | 9.0 | 0.00 | 0.16 | 0.00 | 84 | 999.0 |
| 20260508063030 | 40 | 332 | 3.0 | 6.0 | 0.00 | 0.16 | 0.00 | 84 | 998.9 |
| 20260508061518 | 40 | 32 | 3.0 | 9.0 | 0.00 | 0.16 | 0.00 | 84 | 998.9 |
| 20260508060017 | 41 | 20 | 2.0 | 7.0 | 0.00 | 0.16 | 0.00 | 84 | 998.8 |
| 20260508054515 | 41 | 10 | 4.0 | 7.0 | 0.00 | 0.18 | 0.00 | 83 | 998.8 |
| 20260508053013 | 41 | 319 | 3.0 | 8.0 | 0.00 | 0.18 | 0.00 | 83 | 998.8 |
| 20260508051512 | 41 | 355 | 3.0 | 6.0 | 0.00 | 0.18 | 0.00 | 83 | 998.7 |
| 20260508050010 | 41 | 322 | 3.0 | 7.0 | 0.00 | 0.18 | 0.00 | 83 | 998.7 |
| 20260508044509 | 41 | 355 | 3.0 | 6.0 | 0.00 | 0.18 | 0.00 | 83 | 998.6 |
| 20260508043010 | 41 | 331 | 3.0 | 7.0 | 0.00 | 0.18 | 0.00 | 82 | 998.6 |
| 20260508041505 | 41 | 292 | 3.0 | 7.0 | 0.00 | 0.18 | 0.00 | 82 | 998.7 |
| 20260508040004 | 42 | 292 | 2.0 | 6.0 | 0.00 | 0.18 | 0.00 | 82 | 998.6 |
| 20260508034501 | 42 | 309 | 1.0 | 4.0 | 0.00 | 0.18 | 0.18 | 81 | 998.5 |
| 20260508033002 | 42 | 321 | 2.0 | 5.0 | 0.00 | 0.18 | 0.18 | 81 | 998.5 |
| 20260508031502 | 42 | 341 | 1.0 | 7.0 | 0.00 | 0.18 | 0.18 | 81 | 998.4 |
| 20260508030005 | 43 | 306 | 3.0 | 7.0 | 0.00 | 0.18 | 0.18 | 81 | 998.4 |
| 20260508024600 | 43 | 309 | 3.0 | 7.0 | 0.00 | 0.19 | 0.18 | 80 | 998.4 |
| 20260508023100 | 43 | 28 | 3.0 | 8.0 | 0.00 | 0.19 | 0.18 | 81 | 998.4 |
| 20260508021559 | 43 | 304 | 3.0 | 7.0 | 0.00 | 0.19 | 0.18 | 81 | 998.5 |
| 20260508020105 | 44 | 308 | 4.0 | 8.0 | 0.00 | 0.19 | 0.18 | 80 | 998.5 |
| 20260508014559 | 45 | 289 | 4.0 | 9.0 | 0.00 | 0.22 | 0.18 | 78 | 998.5 |
| 20260508013058 | 45 | 300 | 2.0 | 7.0 | 0.00 | 0.22 | 0.18 | 75 | 998.5 |
| 20260508011557 | 46 | 282 | 3.0 | 7.0 | 0.00 | 0.22 | 0.18 | 71 | 998.5 |
| 20260508010057 | 47 | 294 | 3.0 | 10.0 | 0.00 | 0.22 | 0.18 | 67 | 998.5 |
| 20260508004602 | 48 | 296 | 2.0 | 5.0 | 0.00 | 0.24 | 0.18 | 63 | 998.6 |
| 20260508003058 | 49 | 335 | 4.0 | 8.0 | 0.00 | 0.24 | 0.18 | 62 | 998.4 |
| 20260508001556 | 49 | 23 | 3.0 | 11.0 | 0.00 | 0.24 | 0.18 | 58 | 998.3 |
| 20260508000055 | 50 | 322 | 3.0 | 12.0 | 0.00 | 0.24 | 0.18 | 55 | 998.1 |
| 20260507234554 | 50 | 214 | 5.0 | 11.0 | 0.00 | 0.24 | 0.18 | 56 | 997.9 |
| 20260507233054 | 50 | 308 | 5.0 | 11.0 | 0.00 | 0.24 | 0.18 | 58 | 997.9 |
| 20260507231556 | 51 | 274 | 7.0 | 15.0 | 0.00 | 0.24 | 0.18 | 55 | 997.7 |
| 20260507230053 | 51 | 301 | 4.0 | 15.0 | 0.00 | 0.24 | 0.18 | 60 | 997.5 |
| 20260507224557 | 50 | 267 | 2.0 | 9.0 | 0.00 | 0.24 | 0.18 | 65 | 997.3 |
| 20260507223051 | 51 | 313 | 3.0 | 8.0 | 0.00 | 0.24 | 0.18 | 63 | 997.0 |
| 20260507221551 | 51 | 291 | 5.0 | 12.0 | 0.00 | 0.24 | 0.18 | 59 | 996.9 |
| 20260507220049 | 50 | 268 | 2.0 | 7.0 | 0.00 | 0.24 | 0.18 | 67 | 996.8 |
| 20260507214601 | 50 | 203 | 4.0 | 7.0 | 0.00 | 0.24 | 0.18 | 65 | 996.8 |
| 20260507213048 | 51 | 221 | 4.0 | 7.0 | 0.00 | 0.24 | 0.18 | 65 | 996.6 |
| 20260507211550 | 49 | 231 | 1.0 | 4.0 | 0.00 | 0.24 | 0.18 | 69 | 996.6 |
| 20260507210052 | 49 | 205 | 3.0 | 6.0 | 0.00 | 0.24 | 0.18 | 73 | 996.6 |
| 20260507204546 | 50 | 244 | 2.0 | 6.0 | 0.00 | 0.24 | 0.18 | 73 | 996.5 |
| 20260507203102 | 51 | 244 | 3.0 | 6.0 | 0.00 | 0.24 | 0.18 | 71 | 996.4 |
| 20260507201555 | 52 | 204 | 3.0 | 6.0 | 0.00 | 0.24 | 0.18 | 67 | 996.4 |
| 20260507194544 | 52 | 228 | 5.0 | 13.0 | 0.00 | 0.24 | 0.18 | 70 | 996.4 |
| 20260507193047 | 51 | 273 | 9.0 | 13.0 | 0.00 | 0.24 | 0.18 | 74 | 996.4 |
| 20260507191543 | 49 | 269 | 7.0 | 18.0 | 0.00 | 0.24 | 0.18 | 78 | 996.5 |
| 20260507190042 | 49 | 273 | 11.0 | 20.0 | 0.00 | 0.24 | 0.18 | 79 | 996.5 |
| 20260507184547 | 49 | 271 | 11.0 | 20.0 | 0.00 | 0.24 | 0.18 | 78 | 996.5 |
| 20260507183046 | 50 | 279 | 11.0 | 19.0 | 0.00 | 0.24 | 0.18 | 76 | 996.6 |
| 20260507181539 | 51 | 230 | 10.0 | 18.0 | 0.00 | 0.24 | 0.18 | 74 | 996.6 |
| 20260507180042 | 51 | 232 | 7.0 | 14.0 | 0.00 | 0.24 | 0.18 | 75 | 996.7 |
| 20260507174538 | 50 | 238 | 4.0 | 15.0 | 0.00 | 0.24 | 0.18 | 76 | 996.9 |
| 20260507173038 | 50 | 248 | 9.0 | 20.0 | 0.00 | 0.24 | 0.18 | 75 | 997.1 |
| 20260507171536 | 50 | 238 | 6.0 | 16.0 | 0.00 | 0.24 | 0.18 | 76 | 996.9 |
| 20260507170037 | 52 | 251 | 11.0 | 19.0 | 0.00 | 0.24 | 0.18 | 75 | 996.9 |
| 20260507164541 | 53 | 295 | 12.0 | 17.0 | 0.00 | 0.24 | 0.18 | 73 | 996.8 |
| 20260507163033 | 52 | 214 | 9.0 | 15.0 | 0.00 | 0.24 | 0.18 | 74 | 997.0 |
| 20260507161533 | 53 | 259 | 6.0 | 14.0 | 0.00 | 0.24 | 0.18 | 69 | 997.1 |
| 20260507160030 | 55 | 278 | 4.0 | 9.0 | 0.00 | 0.24 | 0.18 | 67 | 997.4 |
| 20260507154527 | 54 | 300 | 7.0 | 11.0 | 0.00 | 0.24 | 0.18 | 66 | 997.5 |
| 20260507153022 | 53 | 305 | 3.0 | 8.0 | 0.00 | 0.24 | 0.18 | 69 | 997.7 |
| 20260507151522 | 53 | 319 | 4.0 | 9.0 | 0.00 | 0.24 | 0.18 | 70 | 997.7 |
| 20260507150023 | 51 | 298 | 4.0 | 8.0 | 0.00 | 0.24 | 0.18 | 75 | 997.7 |
| 20260507144522 | 49 | 313 | 5.0 | 9.0 | 0.00 | 0.24 | 0.18 | 78 | 997.9 |
| 20260507143012 | 49 | 290 | 3.0 | 10.0 | 0.00 | 0.24 | 0.18 | 77 | 997.8 |
| 20260507141507 | 48 | 304 | 6.0 | 13.0 | 0.00 | 0.24 | 0.18 | 80 | 997.8 |
| 20260507140004 | 46 | 302 | 5.0 | 9.0 | 0.00 | 0.24 | 0.18 | 83 | 997.9 |
| 20260507134501 | 46 | 271 | 5.0 | 11.0 | 0.00 | 0.24 | 0.18 | 83 | 998.1 |
| 20260507133132 | 45 | 346 | 7.0 | 11.0 | 0.00 | 0.24 | 0.18 | 85 | 998.2 |
| 20260507131556 | 45 | 327 | 7.0 | 11.0 | 0.00 | 0.24 | 0.18 | 85 | 998.3 |
| 20260507130106 | 45 | 299 | 6.0 | 10.0 | 0.00 | 0.24 | 0.18 | 88 | 998.6 |
| 20260507124548 | 44 | 12 | 2.0 | 7.0 | 0.00 | 0.24 | 0.18 | 91 | 998.6 |
| 20260507123045 | 43 | 35 | 4.0 | 8.0 | 0.00 | 0.24 | 0.18 | 91 | 999.0 |
| 20260507121547 | 43 | 350 | 4.0 | 9.0 | 0.00 | 0.24 | 0.18 | 92 | 998.9 |
| 20260507120052 | 42 | 343 | 5.0 | 10.0 | 0.00 | 0.24 | 0.18 | 93 | 999.3 |
| 20260507114603 | 42 | 5 | 3.0 | 8.0 | 0.01 | 0.24 | 0.18 | 94 | 999.4 |
| 20260507113035 | 41 | 15 | 4.0 | 9.0 | 0.01 | 0.24 | 0.18 | 95 | 999.4 |
| 20260507111535 | 41 | 331 | 5.0 | 8.0 | 0.02 | 0.24 | 0.18 | 95 | 999.7 |
| 20260507110031 | 41 | 319 | 2.0 | 5.0 | 0.02 | 0.24 | 0.18 | 95 | 999.8 |
| 20260507104529 | 41 | 348 | 0.0 | 4.0 | 0.02 | 0.24 | 0.17 | 95 | 999.9 |
| 20260507103027 | 41 | 17 | 2.0 | 4.0 | 0.02 | 0.24 | 0.17 | 95 | 1000.0 |
| 20260507101528 | 41 | 360 | 2.0 | 5.0 | 0.03 | 0.23 | 0.17 | 95 | 1000.1 |
| 20260507100024 | 41 | 339 | 4.0 | 6.0 | 0.05 | 0.23 | 0.17 | 95 | 1000.3 |
| 20260507094521 | 41 | 5 | 2.0 | 5.0 | 0.06 | 0.22 | 0.16 | 95 | 1000.4 |
| 20260507093022 | 41 | 360 | 1.0 | 4.0 | 0.06 | 0.21 | 0.15 | 95 | 1000.7 |
| 20260507091526 | 41 | 360 | 2.0 | 4.0 | 0.06 | 0.20 | 0.13 | 95 | 1000.9 |
| 20260507090023 | 41 | 327 | 1.0 | 4.0 | 0.05 | 0.18 | 0.12 | 95 | 1001.1 |
| 20260507084516 | 41 | 18 | 1.0 | 3.0 | 0.04 | 0.17 | 0.10 | 95 | 1001.0 |
| 20260507083015 | 41 | 50 | 1.0 | 4.0 | 0.03 | 0.15 | 0.09 | 95 | 1001.1 |
| 20260507081513 | 41 | 59 | 2.0 | 4.0 | 0.02 | 0.14 | 0.08 | 95 | 1001.4 |
| 20260507080011 | 41 | 36 | 2.0 | 4.0 | 0.02 | 0.13 | 0.07 | 95 | 1001.6 |
| 20260507074509 | 41 | 22 | 2.0 | 4.0 | 0.02 | 0.13 | 0.06 | 95 | 1002.1 |
| 20260507073006 | 41 | 355 | 1.0 | 4.0 | 0.02 | 0.12 | 0.06 | 95 | 1002.4 |
| 20260507071505 | 41 | 30 | 1.0 | 4.0 | 0.03 | 0.12 | 0.06 | 95 | 1002.6 |